createdAt,value
2019-04-20T00:00:30.538Z,0.00
2019-04-20T00:01:31.991Z,0.00
2019-04-20T00:02:27.521Z,0.00
2019-04-20T00:03:34.403Z,0.00
2019-04-20T00:04:32.404Z,0.00
2019-04-20T00:05:27.564Z,0.00
2019-04-20T00:06:31.728Z,0.00
2019-04-20T00:07:31.299Z,0.00
2019-04-20T00:08:31.081Z,0.00
2019-04-20T00:09:31.294Z,0.00
2019-04-20T00:10:29.836Z,0.00
2019-04-20T00:11:39.810Z,0.00
2019-04-20T00:12:39.455Z,0.00
2019-04-20T00:13:38.436Z,0.00
2019-04-20T00:14:30.832Z,0.00
2019-04-20T00:15:28.258Z,0.00
2019-04-20T00:16:27.303Z,0.00
2019-04-20T00:17:27.090Z,0.00
2019-04-20T00:18:35.530Z,0.00
2019-04-20T00:19:35.396Z,0.00
2019-04-20T00:20:32.066Z,0.00
2019-04-20T00:21:27.015Z,0.00
2019-04-20T00:22:34.378Z,0.00
2019-04-20T00:23:33.459Z,0.00
2019-04-20T00:24:31.975Z,0.00
2019-04-20T00:25:44.442Z,0.00
2019-04-20T00:26:56.431Z,0.00
2019-04-20T00:27:54.526Z,0.00
2019-04-20T00:28:47.369Z,0.00
2019-04-20T00:29:45.250Z,0.00
2019-04-20T00:30:48.007Z,0.00
2019-04-20T00:31:42.182Z,0.00
2019-04-20T00:32:45.496Z,0.00
2019-04-20T00:33:39.763Z,0.00
2019-04-20T00:34:33.148Z,0.00
2019-04-20T00:35:27.144Z,0.00
2019-04-20T00:36:27.746Z,0.00
2019-04-20T00:37:27.751Z,0.00
2019-04-20T00:38:33.543Z,0.00
2019-04-20T00:39:27.864Z,0.00
2019-04-20T00:40:26.654Z,0.00
2019-04-20T00:41:27.684Z,0.00
2019-04-20T00:42:33.896Z,0.00
2019-04-20T00:43:31.097Z,0.00
2019-04-20T00:44:31.983Z,0.00
2019-04-20T00:45:30.612Z,0.00
2019-04-20T00:46:35.434Z,0.00
2019-04-20T00:47:37.386Z,0.00
2019-04-20T00:48:37.587Z,0.00
2019-04-20T00:49:38.890Z,0.00
2019-04-20T00:50:43.076Z,0.00
2019-04-20T00:51:49.370Z,0.00
2019-04-20T00:52:44.116Z,0.00
2019-04-20T00:53:33.337Z,0.00
2019-04-20T00:54:26.452Z,0.00
2019-04-20T00:55:27.309Z,0.00
2019-04-20T00:56:26.533Z,0.00
2019-04-20T00:57:39.371Z,0.00
2019-04-20T00:58:33.369Z,0.00
2019-04-20T00:59:42.522Z,0.00
2019-04-20T01:00:41.042Z,0.00
2019-04-20T01:01:47.545Z,0.00
2019-04-20T01:02:37.120Z,0.00
2019-04-20T01:03:43.500Z,0.00
2019-04-20T01:04:51.813Z,0.00
2019-04-20T01:05:43.765Z,0.00
2019-04-20T01:06:41.032Z,0.00
2019-04-20T01:07:37.466Z,0.00
2019-04-20T01:08:27.391Z,0.00
2019-04-20T01:09:26.477Z,0.00
2019-04-20T01:10:29.205Z,0.00
2019-04-20T01:11:30.874Z,0.00
2019-04-20T01:12:28.550Z,0.00
2019-04-20T01:13:27.178Z,0.00
2019-04-20T01:14:31.201Z,0.00
2019-04-20T01:15:36.391Z,0.00
2019-04-20T01:16:35.363Z,0.00
2019-04-20T01:17:25.914Z,0.00
2019-04-20T01:18:25.894Z,0.00
2019-04-20T01:19:25.886Z,0.00
2019-04-20T01:20:26.490Z,0.00
2019-04-20T01:21:28.831Z,0.00
2019-04-20T01:22:28.397Z,0.00
2019-04-20T01:23:35.476Z,0.00
2019-04-20T01:24:32.878Z,0.00
2019-04-20T01:25:30.889Z,0.00
2019-04-20T01:26:27.342Z,0.00
2019-04-20T01:27:39.922Z,0.00
2019-04-20T01:28:44.745Z,0.00
2019-04-20T01:29:32.439Z,0.00
2019-04-20T01:30:35.011Z,0.00
2019-04-20T01:31:35.419Z,0.00
2019-04-20T01:32:36.028Z,0.00
2019-04-20T01:33:37.272Z,0.00
2019-04-20T01:34:39.189Z,0.00
2019-04-20T01:35:44.158Z,0.00
2019-04-20T01:36:46.126Z,0.00
2019-04-20T01:37:36.551Z,0.00
2019-04-20T01:38:41.185Z,0.00
2019-04-20T01:39:34.639Z,0.00
2019-04-20T01:40:25.574Z,0.00
2019-04-20T01:41:26.512Z,0.00
2019-04-20T01:42:25.570Z,0.00
2019-04-20T01:43:25.402Z,0.00
2019-04-20T01:44:31.612Z,0.00
2019-04-20T01:45:29.322Z,0.00
2019-04-20T01:46:28.331Z,0.00
2019-04-20T01:47:32.380Z,0.00
2019-04-20T01:48:28.681Z,0.00
2019-04-20T01:49:30.269Z,0.00
2019-04-20T01:50:28.442Z,0.00
2019-04-20T01:51:30.663Z,0.00
2019-04-20T01:52:29.895Z,0.00
2019-04-20T01:53:44.172Z,0.00
2019-04-20T01:54:48.579Z,0.00
2019-04-20T01:55:42.511Z,0.00
2019-04-20T01:56:37.358Z,0.00
2019-04-20T01:57:33.003Z,0.00
2019-04-20T01:58:42.825Z,0.00
2019-04-20T01:59:37.064Z,0.00
2019-04-20T02:00:32.751Z,0.00
2019-04-20T02:01:29.677Z,0.00
2019-04-20T02:02:26.656Z,0.00
2019-04-20T02:03:31.087Z,0.00
2019-04-20T02:04:29.177Z,0.00
2019-04-20T02:05:30.998Z,0.00
2019-04-20T02:06:26.846Z,0.00
2019-04-20T02:07:31.602Z,0.00
2019-04-20T02:08:28.138Z,0.00
2019-04-20T02:09:28.008Z,0.00
2019-04-20T02:10:31.922Z,0.00
2019-04-20T02:11:29.448Z,0.00
2019-04-20T02:12:29.231Z,0.00
2019-04-20T02:13:26.398Z,0.00
2019-04-20T02:14:34.203Z,0.00
2019-04-20T02:15:32.540Z,0.00
2019-04-20T02:16:33.602Z,0.00
2019-04-20T02:17:31.976Z,0.00
2019-04-20T02:18:35.899Z,0.00
2019-04-20T02:19:37.711Z,0.00
2019-04-20T02:20:43.886Z,0.00
2019-04-20T02:21:43.357Z,0.00
2019-04-20T02:22:45.129Z,0.00
2019-04-20T02:23:34.727Z,0.00
2019-04-20T02:24:25.770Z,0.00
2019-04-20T02:25:24.920Z,0.00
2019-04-20T02:26:24.539Z,0.00
2019-04-20T02:27:31.104Z,0.00
2019-04-20T02:28:45.892Z,0.00
2019-04-20T02:29:46.223Z,0.00
2019-04-20T02:31:04.738Z,0.00
2019-04-20T02:32:09.028Z,0.00
2019-04-20T02:32:55.249Z,0.00
2019-04-20T02:33:59.354Z,0.00
2019-04-20T02:34:55.362Z,0.00
2019-04-20T02:36:08.194Z,0.00
2019-04-20T02:38:05.654Z,0.00
2019-04-20T02:41:03.148Z,0.00
2019-04-20T02:43:03.615Z,0.00
2019-04-20T02:44:06.108Z,0.00
2019-04-20T02:45:01.391Z,0.00
2019-04-20T02:45:52.976Z,0.00
2019-04-20T02:46:55.994Z,0.00
2019-04-20T02:48:01.270Z,0.00
2019-04-20T02:49:04.302Z,0.00
2019-04-20T02:51:05.896Z,0.00
2019-04-20T02:51:54.016Z,0.00
2019-04-20T02:53:09.979Z,0.00
2019-04-20T02:54:12.909Z,0.00
2019-04-20T02:55:04.394Z,0.00
2019-04-20T02:56:00.167Z,0.00
2019-04-20T02:59:14.704Z,0.00
2019-04-20T03:00:46.180Z,0.00
2019-04-20T03:01:45.617Z,0.00
2019-04-20T03:02:38.551Z,0.00
2019-04-20T03:03:32.810Z,0.00
2019-04-20T03:04:36.328Z,0.00
2019-04-20T03:05:33.195Z,0.00
2019-04-20T03:06:38.863Z,0.00
2019-04-20T03:07:47.966Z,0.00
2019-04-20T03:08:47.201Z,0.00
2019-04-20T03:09:46.932Z,0.00
2019-04-20T03:10:56.737Z,0.00
2019-04-20T03:11:52.772Z,0.00
2019-04-20T03:12:43.088Z,0.00
2019-04-20T03:13:41.436Z,0.00
2019-04-20T03:14:39.314Z,0.00
2019-04-20T03:15:44.531Z,0.00
2019-04-20T03:16:39.724Z,0.00
2019-04-20T03:17:46.416Z,0.00
2019-04-20T03:18:41.639Z,0.00
2019-04-20T03:19:37.677Z,0.00
2019-04-20T03:20:50.271Z,0.00
2019-04-20T03:21:44.280Z,0.00
2019-04-20T03:23:05.522Z,0.00
2019-04-20T03:23:55.713Z,0.00
2019-04-20T03:25:01.827Z,0.00
2019-04-20T03:25:53.494Z,0.00
2019-04-20T03:26:43.145Z,0.00
2019-04-20T03:27:36.590Z,0.00
2019-04-20T03:28:41.408Z,0.00
2019-04-20T03:32:15.451Z,0.00
2019-04-20T03:33:12.679Z,0.00
2019-04-20T03:34:05.658Z,0.00
2019-04-20T03:35:00.540Z,0.00
2019-04-20T03:35:50.896Z,0.00
2019-04-20T03:36:57.505Z,0.00
2019-04-20T03:37:58.605Z,0.00
2019-04-20T03:38:44.800Z,0.00
2019-04-20T03:39:41.675Z,0.00
2019-04-20T03:40:36.465Z,0.00
2019-04-20T03:41:32.515Z,0.00
2019-04-20T03:42:24.350Z,0.00
2019-04-20T03:43:22.980Z,0.00
2019-04-20T03:44:26.462Z,0.00
2019-04-20T03:45:24.887Z,0.00
2019-04-20T03:46:31.025Z,0.00
2019-04-20T03:47:35.074Z,0.00
2019-04-20T03:48:41.432Z,0.00
2019-04-20T03:49:48.323Z,0.00
2019-04-20T03:50:42.373Z,0.00
2019-04-20T03:51:47.080Z,0.00
2019-04-20T03:52:36.581Z,0.00
2019-04-20T03:53:43.406Z,0.00
2019-04-20T03:54:34.406Z,0.00
2019-04-20T03:55:39.731Z,0.00
2019-04-20T03:56:46.325Z,0.00
2019-04-20T03:57:45.596Z,0.00
2019-04-20T03:58:39.021Z,0.00
2019-04-20T03:59:38.940Z,0.00
2019-04-20T04:00:42.998Z,0.00
2019-04-20T04:02:06.292Z,0.00
2019-04-20T04:02:54.697Z,0.00
2019-04-20T04:03:51.252Z,0.00
2019-04-20T04:04:44.160Z,0.00
2019-04-20T04:05:39.414Z,0.00
2019-04-20T04:06:32.846Z,0.00
2019-04-20T04:07:30.434Z,0.00
2019-04-20T04:08:32.241Z,0.00
2019-04-20T04:09:33.137Z,0.00
2019-04-20T04:10:33.575Z,0.00
2019-04-20T04:11:38.799Z,0.00
2019-04-20T04:12:29.966Z,0.00
2019-04-20T04:13:23.036Z,0.00
2019-04-20T04:14:22.334Z,0.00
2019-04-20T04:15:23.094Z,0.00
2019-04-20T04:16:27.142Z,0.00
2019-04-20T04:17:29.669Z,5.63
2019-04-20T04:18:29.896Z,5.63
2019-04-20T04:19:28.433Z,5.63
2019-04-20T04:20:23.105Z,5.63
2019-04-20T04:21:40.939Z,5.63
2019-04-20T04:22:42.001Z,5.63
2019-04-20T04:23:40.394Z,5.63
2019-04-20T04:24:31.548Z,11.25
2019-04-20T04:25:32.537Z,11.25
2019-04-20T04:26:39.474Z,11.25
2019-04-20T04:27:40.504Z,11.25
2019-04-20T04:28:37.393Z,16.88
2019-04-20T04:29:41.885Z,16.88
2019-04-20T04:30:36.772Z,16.88
2019-04-20T04:31:45.498Z,16.88
2019-04-20T04:33:09.014Z,22.50
2019-04-20T06:54:05.462Z,258.75
2019-04-20T06:55:19.977Z,258.75
2019-04-20T06:56:15.936Z,270.00
2019-04-20T06:57:09.902Z,264.38
2019-04-20T06:58:29.139Z,264.38
2019-04-20T06:59:21.529Z,264.38
2019-04-20T07:00:27.940Z,270.00
2019-04-20T07:01:11.198Z,270.00
2019-04-20T07:02:20.225Z,270.00
2019-04-20T07:03:17.499Z,275.63
2019-04-20T07:04:33.517Z,275.63
2019-04-20T07:05:13.039Z,275.63
2019-04-20T07:06:31.106Z,275.63
2019-04-20T07:07:14.692Z,275.63
2019-04-20T07:08:28.973Z,275.63
2019-04-20T07:09:16.592Z,275.63
2019-04-20T07:11:16.598Z,281.25
2019-04-20T07:12:06.409Z,281.25
2019-04-20T07:13:07.937Z,281.25
2019-04-20T07:13:57.870Z,281.25
2019-04-20T07:14:58.640Z,281.25
2019-04-20T07:16:13.512Z,281.25
2019-04-20T07:17:20.540Z,281.25
2019-04-20T07:18:09.516Z,281.25
2019-04-20T07:19:15.223Z,281.25
2019-04-20T10:20:45.676Z,405.00
2019-04-20T10:21:45.726Z,410.63
2019-04-20T10:22:46.710Z,410.63
2019-04-20T10:23:45.621Z,410.63
2019-04-20T10:24:48.592Z,416.25
2019-04-20T10:25:46.789Z,416.25
2019-04-20T10:26:45.559Z,416.25
2019-04-20T10:27:45.644Z,421.88
2019-04-20T10:28:45.653Z,421.88
2019-04-20T10:29:45.854Z,421.88
2019-04-20T10:30:46.320Z,427.50
2019-04-20T10:31:50.500Z,427.50
2019-04-20T10:32:50.369Z,427.50
2019-04-20T10:33:45.913Z,427.50
2019-04-20T10:34:46.423Z,433.13
2019-04-20T10:35:45.615Z,433.13
2019-04-20T10:36:45.858Z,433.13
2019-04-20T10:37:45.491Z,438.75
2019-04-20T10:38:46.526Z,438.75
2019-04-20T10:39:46.692Z,444.38
2019-04-20T10:40:56.213Z,444.38
2019-04-20T10:41:51.255Z,450.00
2019-04-20T10:42:46.243Z,450.00
2019-04-20T10:43:46.853Z,450.00
2019-04-20T10:44:45.459Z,450.00
2019-04-20T10:45:46.682Z,450.00
2019-04-20T10:46:45.493Z,455.63
2019-04-20T10:47:45.412Z,455.63
2019-04-20T10:48:49.237Z,455.63
2019-04-20T10:49:45.349Z,455.63
2019-04-20T10:50:45.320Z,461.25
2019-04-20T10:51:45.250Z,461.25
2019-04-20T10:52:45.797Z,461.25
2019-04-20T10:53:45.281Z,466.88
2019-04-20T10:54:45.278Z,466.88
2019-04-20T10:55:45.343Z,466.88
2019-04-20T10:56:45.696Z,466.88
2019-04-20T10:57:45.889Z,472.50
2019-04-20T10:58:45.468Z,472.50
2019-04-20T10:59:45.723Z,472.50
2019-04-20T11:00:46.042Z,478.13
2019-04-20T11:01:45.726Z,478.13
2019-04-20T11:02:47.439Z,478.13
2019-04-20T11:03:45.190Z,478.13
2019-04-20T11:04:46.221Z,483.75
2019-04-20T11:05:45.089Z,483.75
2019-04-20T11:06:45.102Z,483.75
2019-04-20T11:07:46.271Z,483.75
2019-04-20T11:08:45.063Z,483.75
2019-04-20T11:09:46.981Z,483.75
2019-04-20T11:10:55.983Z,489.38
2019-04-20T11:11:46.087Z,489.38
2019-04-20T11:12:46.171Z,489.38
2019-04-20T11:13:45.635Z,495.00
2019-04-20T11:14:45.696Z,495.00
2019-04-20T11:15:46.291Z,495.00
2019-04-20T11:16:44.963Z,500.63
2019-04-20T11:17:45.751Z,506.25
2019-04-20T11:18:45.201Z,517.50
2019-04-20T11:19:45.311Z,511.88
2019-04-20T11:20:45.637Z,511.88
2019-04-20T11:21:46.202Z,523.13
2019-04-20T11:22:46.275Z,517.50
2019-04-20T11:23:46.477Z,517.50
2019-04-20T11:24:46.062Z,528.75
2019-04-20T11:25:46.290Z,528.75
2019-04-20T11:26:46.505Z,528.75
2019-04-20T11:27:45.983Z,534.38
2019-04-20T11:28:46.136Z,528.75
2019-04-20T11:29:44.884Z,528.75
2019-04-20T11:30:46.059Z,534.38
2019-04-20T11:31:49.261Z,545.63
2019-04-20T11:32:44.781Z,534.38
2019-04-20T11:33:45.890Z,534.38
2019-04-20T11:34:45.403Z,540.00
2019-04-20T11:35:46.916Z,540.00
2019-04-20T11:36:45.454Z,540.00
2019-04-20T11:37:44.959Z,545.63
2019-04-20T11:38:44.897Z,545.63
2019-04-20T11:39:45.264Z,545.63
2019-04-20T11:40:44.926Z,568.13
2019-04-20T11:41:45.719Z,551.25
2019-04-20T11:42:45.653Z,556.88
2019-04-20T11:43:44.654Z,551.25
2019-04-20T11:44:44.863Z,551.25
2019-04-20T11:45:44.728Z,556.88
2019-04-20T11:46:44.936Z,556.88
2019-04-20T11:47:45.317Z,556.88
2019-04-20T11:48:45.454Z,562.50
2019-04-20T11:49:45.731Z,562.50
2019-04-20T11:50:45.430Z,562.50
2019-04-20T11:51:45.569Z,562.50
2019-04-20T11:52:48.147Z,562.50
2019-04-20T11:53:45.878Z,568.13
2019-04-20T11:54:44.558Z,568.13
2019-04-20T11:55:44.684Z,568.13
2019-04-20T11:56:47.145Z,573.75
2019-04-20T11:57:45.253Z,573.75
2019-04-20T11:58:44.875Z,573.75
2019-04-20T11:59:45.315Z,579.38
2019-04-20T12:00:54.010Z,579.38
2019-04-20T12:01:52.185Z,579.38
2019-04-20T12:02:46.503Z,585.00
2019-04-20T12:03:51.916Z,585.00
2019-04-20T12:04:52.222Z,590.63
2019-04-20T12:05:49.623Z,590.63
2019-04-20T12:06:44.436Z,590.63
2019-04-20T12:07:44.818Z,596.25
2019-04-20T12:08:45.457Z,596.25
2019-04-20T12:09:44.410Z,596.25
2019-04-20T12:10:50.288Z,596.25
2019-04-20T12:11:55.950Z,601.88
2019-04-20T12:12:48.757Z,601.88
2019-04-20T12:13:44.867Z,601.88
2019-04-20T12:14:44.370Z,607.50
2019-04-20T12:15:45.434Z,613.13
2019-04-20T12:16:45.754Z,607.50
2019-04-20T12:17:44.336Z,607.50
2019-04-20T12:18:44.442Z,613.13
2019-04-20T12:19:44.320Z,613.13
2019-04-20T12:20:44.991Z,613.13
2019-04-20T12:21:45.490Z,618.75
2019-04-20T12:22:44.317Z,618.75
2019-04-20T12:23:44.583Z,624.38
2019-04-20T12:24:44.585Z,618.75
2019-04-20T12:25:44.589Z,630.00
2019-04-20T12:26:44.794Z,630.00
2019-04-20T12:27:49.664Z,624.38
2019-04-20T12:28:45.424Z,630.00
2019-04-20T12:29:45.647Z,630.00
2019-04-20T12:30:44.229Z,630.00
2019-04-20T12:31:52.197Z,635.63
2019-04-20T12:32:51.523Z,630.00
2019-04-20T12:33:44.353Z,635.63
2019-04-20T12:34:45.340Z,635.63
2019-04-20T12:35:44.481Z,635.63
2019-04-20T12:36:44.856Z,641.25
2019-04-20T12:37:45.107Z,641.25
2019-04-20T12:38:46.157Z,641.25
2019-04-20T12:39:44.915Z,641.25
2019-04-20T12:40:44.144Z,646.88
2019-04-20T12:41:50.445Z,646.88
2019-04-20T12:42:44.283Z,646.88
2019-04-20T12:43:44.120Z,652.50
2019-04-20T12:44:44.126Z,652.50
2019-04-20T12:45:44.223Z,658.13
2019-04-20T12:46:44.096Z,658.13
2019-04-20T12:47:46.991Z,663.75
2019-04-20T12:48:44.091Z,663.75
2019-04-20T12:49:45.403Z,663.75
2019-04-20T12:50:44.063Z,669.38
2019-04-20T12:51:52.202Z,669.38
2019-04-20T12:52:44.267Z,675.00
2019-04-20T12:53:44.543Z,675.00
2019-04-20T12:54:45.961Z,675.00
2019-04-20T12:55:44.331Z,680.63
2019-04-20T12:56:44.688Z,686.25
2019-04-20T12:57:44.784Z,686.25
2019-04-20T12:58:45.114Z,691.88
2019-04-20T12:59:46.928Z,697.50
2019-04-20T13:00:43.991Z,708.75
2019-04-20T13:01:43.986Z,708.75
2019-04-20T13:02:45.259Z,708.75
2019-04-20T13:03:43.973Z,714.38
2019-04-20T13:04:43.978Z,725.63
2019-04-20T13:05:43.964Z,731.25
2019-04-20T13:06:44.740Z,736.88
2019-04-20T13:07:47.839Z,748.13
2019-04-20T13:08:51.170Z,759.38
2019-04-20T13:09:44.314Z,776.25
2019-04-20T13:10:44.463Z,804.38
2019-04-20T13:11:51.987Z,838.13
2019-04-20T13:12:44.633Z,990.00
2019-04-20T13:13:44.263Z,2840.63
2019-04-20T13:14:44.393Z,5090.63
2019-04-20T13:15:44.548Z,4657.50
2019-04-20T13:16:44.095Z,3729.38
2019-04-20T13:17:44.349Z,4404.38
2019-04-20T13:18:43.868Z,4190.63
2019-04-20T13:19:45.082Z,4123.13
2019-04-20T13:20:43.975Z,4359.38
2019-04-20T13:21:45.114Z,4522.50
2019-04-20T13:22:44.324Z,4550.63
2019-04-20T13:23:44.940Z,4252.50
2019-04-20T13:24:45.103Z,4078.13
2019-04-20T13:25:43.866Z,4359.38
2019-04-20T13:26:44.894Z,4550.63
2019-04-20T13:27:45.020Z,4218.75
2019-04-20T13:28:43.810Z,4331.25
2019-04-20T13:29:47.093Z,4646.25
2019-04-20T13:30:43.933Z,4438.13
2019-04-20T13:31:44.087Z,4381.88
2019-04-20T13:32:43.785Z,4185.00
2019-04-20T13:33:43.783Z,4533.75
2019-04-20T13:34:44.526Z,4601.25
2019-04-20T13:35:43.953Z,3976.88
2019-04-20T13:36:44.169Z,4128.75
2019-04-20T13:37:45.134Z,4134.38
2019-04-20T13:38:44.117Z,4438.13
2019-04-20T13:39:44.780Z,4393.13
2019-04-20T13:40:44.007Z,4342.50
2019-04-20T13:41:57.040Z,4443.75
2019-04-20T13:42:43.766Z,4618.13
2019-04-20T13:43:43.940Z,4786.88
2019-04-20T13:44:45.153Z,4888.13
2019-04-20T13:45:44.736Z,5270.63
2019-04-20T13:46:44.980Z,5056.88
2019-04-20T13:47:43.704Z,4635.00
2019-04-20T13:48:44.807Z,4815.00
2019-04-20T13:49:45.076Z,4831.88
2019-04-20T13:50:44.274Z,4955.63
2019-04-20T13:51:44.607Z,4719.38
2019-04-20T13:52:44.702Z,3948.75
2019-04-20T13:53:43.678Z,3324.38
2019-04-20T13:54:44.115Z,3082.50
2019-04-20T13:55:43.677Z,3211.88
2019-04-20T13:56:43.846Z,3071.25
2019-04-20T13:57:44.018Z,2908.13
2019-04-20T13:58:43.710Z,2868.75
2019-04-20T13:59:44.070Z,2643.75
2019-04-20T14:00:44.988Z,2565.00
2019-04-20T14:01:44.550Z,2531.25
2019-04-20T14:02:44.772Z,2401.88
2019-04-20T14:03:44.913Z,2311.88
2019-04-20T14:04:44.512Z,2390.63
2019-04-20T14:05:44.702Z,2351.25
2019-04-20T14:06:43.640Z,2261.25
2019-04-20T14:07:43.618Z,2148.75
2019-04-20T14:08:43.624Z,2115.00
2019-04-20T14:09:43.679Z,2233.13
2019-04-20T14:10:43.608Z,2413.13
2019-04-20T14:11:43.620Z,2576.25
2019-04-20T14:12:53.631Z,2666.25
2019-04-20T14:13:53.003Z,2632.50
2019-04-20T14:14:43.612Z,2683.13
2019-04-20T14:15:44.865Z,2795.63
2019-04-20T14:16:43.649Z,3037.50
2019-04-20T14:17:43.585Z,3200.63
2019-04-20T14:18:44.978Z,2981.25
2019-04-20T14:19:43.577Z,3296.25
2019-04-20T14:20:44.642Z,4100.63
2019-04-20T14:21:43.981Z,4606.88
2019-04-20T14:22:43.577Z,4443.75
2019-04-20T14:23:43.565Z,3943.13
2019-04-20T14:24:44.508Z,3881.25
2019-04-20T14:25:45.021Z,4095.00
2019-04-20T14:26:46.826Z,4078.13
2019-04-20T14:27:44.590Z,3442.50
2019-04-20T14:28:45.010Z,3656.25
2019-04-20T14:29:43.550Z,4123.13
2019-04-20T14:30:43.756Z,3993.75
2019-04-20T14:31:43.804Z,3768.75
2019-04-20T14:32:44.936Z,3673.13
2019-04-20T14:33:44.631Z,4376.25
2019-04-20T14:34:44.752Z,4291.88
2019-04-20T14:35:43.532Z,3425.63
2019-04-20T14:36:44.577Z,3403.13
2019-04-20T14:37:43.833Z,3600.00
2019-04-20T14:38:45.354Z,3661.88
2019-04-20T14:39:43.519Z,3526.88
2019-04-20T14:40:44.187Z,3420.00
2019-04-20T14:41:44.448Z,3521.25
2019-04-20T14:42:48.562Z,3993.75
2019-04-20T14:43:44.689Z,3999.38
2019-04-20T14:44:43.728Z,3172.50
2019-04-20T14:45:44.757Z,3015.00
2019-04-20T14:46:43.503Z,3560.63
2019-04-20T14:47:43.811Z,3791.25
2019-04-20T14:48:44.867Z,3802.50
2019-04-20T14:49:43.509Z,3549.38
2019-04-20T14:50:43.550Z,3341.25
2019-04-20T14:51:43.737Z,3684.38
2019-04-20T14:52:45.339Z,3645.00
2019-04-20T14:53:43.488Z,3504.38
2019-04-20T14:54:43.625Z,3695.63
2019-04-20T14:55:43.768Z,3622.50
2019-04-20T14:56:43.551Z,3459.38
2019-04-20T14:57:43.586Z,3481.88
2019-04-20T14:58:45.077Z,3211.88
2019-04-20T14:59:43.526Z,3116.25
2019-04-20T15:00:43.748Z,3386.25
2019-04-20T15:01:44.831Z,3526.88
2019-04-20T15:02:43.780Z,3498.75
2019-04-20T15:03:43.928Z,3667.50
2019-04-20T15:04:43.470Z,3796.88
2019-04-20T15:05:43.468Z,3414.38
2019-04-20T15:06:44.460Z,3431.25
2019-04-20T15:07:44.699Z,3628.13
2019-04-20T15:08:44.900Z,3285.00
2019-04-20T15:09:44.656Z,3178.13
2019-04-20T15:10:44.761Z,3470.63
2019-04-20T15:11:45.148Z,3594.38
2019-04-20T15:12:50.878Z,3605.63
2019-04-20T15:13:44.629Z,3324.38
2019-04-20T15:14:44.769Z,3076.88
2019-04-20T15:15:44.284Z,3431.25
2019-04-20T15:16:44.581Z,3408.75
2019-04-20T15:17:43.758Z,3172.50
2019-04-20T15:18:43.453Z,3195.00
2019-04-20T15:19:43.463Z,3211.88
2019-04-20T15:20:43.741Z,3386.25
2019-04-20T15:21:43.448Z,3273.75
2019-04-20T15:22:43.467Z,3121.88
2019-04-20T15:23:43.727Z,3211.88
2019-04-20T15:24:43.449Z,3065.63
2019-04-20T15:25:44.486Z,3071.25
2019-04-20T15:26:44.502Z,3144.38
2019-04-20T15:27:46.083Z,3099.38
2019-04-20T15:28:44.125Z,3121.88
2019-04-20T15:29:44.196Z,3144.38
2019-04-20T15:30:44.490Z,3116.25
2019-04-20T15:31:43.997Z,3054.38
2019-04-20T15:32:43.471Z,2902.50
2019-04-20T15:33:43.447Z,2857.50
2019-04-20T15:34:44.624Z,3076.88
2019-04-20T15:35:44.200Z,3195.00
2019-04-20T15:36:44.307Z,2964.38
2019-04-20T15:37:44.930Z,2739.38
2019-04-20T15:38:43.443Z,2880.00
2019-04-20T15:39:43.445Z,3082.50
2019-04-20T15:40:44.657Z,2745.00
2019-04-20T15:41:43.449Z,2441.25
2019-04-20T15:42:54.990Z,2643.75
2019-04-20T15:43:43.619Z,2874.38
2019-04-20T15:44:43.441Z,2716.88
2019-04-20T15:45:43.536Z,2829.38
2019-04-20T15:46:43.572Z,2891.25
2019-04-20T15:47:43.784Z,2818.13
2019-04-20T15:48:43.979Z,2688.75
2019-04-20T15:49:44.164Z,2778.75
2019-04-20T15:50:43.773Z,2902.50
2019-04-20T15:51:43.804Z,2829.38
2019-04-20T15:52:49.421Z,2835.00
2019-04-20T15:53:43.905Z,2626.88
2019-04-20T15:54:43.496Z,2559.38
2019-04-20T15:55:45.197Z,2773.13
2019-04-20T15:56:52.689Z,2671.88
2019-04-20T15:57:44.746Z,2576.25
2019-04-20T15:58:44.265Z,2638.13
2019-04-20T15:59:44.462Z,2683.13
2019-04-20T16:00:44.715Z,2570.63
2019-04-20T16:01:43.420Z,2368.13
2019-04-20T16:02:43.452Z,2385.00
2019-04-20T16:03:43.541Z,2553.75
2019-04-20T16:04:45.028Z,2559.38
2019-04-20T16:05:43.421Z,2514.38
2019-04-20T16:06:43.430Z,2610.00
2019-04-20T16:07:50.134Z,2441.25
2019-04-20T16:08:44.053Z,2244.38
2019-04-20T16:09:44.335Z,2272.50
2019-04-20T16:10:43.414Z,2356.88
2019-04-20T16:11:44.759Z,2345.63
2019-04-20T16:12:44.813Z,2255.63
2019-04-20T16:13:46.370Z,2205.00
2019-04-20T16:14:43.890Z,2278.13
2019-04-20T16:15:43.451Z,2328.75
2019-04-20T16:16:44.481Z,2379.38
2019-04-20T16:17:47.128Z,2278.13
2019-04-20T16:18:43.438Z,2176.88
2019-04-20T16:19:50.974Z,2098.13
2019-04-20T16:20:51.999Z,2109.38
2019-04-20T16:21:43.824Z,2182.50
2019-04-20T16:22:44.676Z,2148.75
2019-04-20T16:23:43.428Z,2086.88
2019-04-20T16:24:44.845Z,2019.38
2019-04-20T16:25:43.709Z,1946.25
2019-04-20T16:26:44.144Z,1996.88
2019-04-20T16:27:51.847Z,2064.38
2019-04-20T16:28:43.728Z,2036.25
2019-04-20T16:29:43.916Z,1963.13
2019-04-20T16:30:43.520Z,1946.25
2019-04-20T16:31:46.412Z,1923.75
2019-04-20T16:32:44.800Z,1822.50
2019-04-20T16:33:44.277Z,1828.13
2019-04-20T16:34:44.511Z,1890.00
2019-04-20T16:35:44.591Z,1856.25
2019-04-20T16:36:44.521Z,1693.13
2019-04-20T16:37:44.382Z,1665.00
2019-04-20T16:38:43.598Z,1721.25
2019-04-20T16:39:43.410Z,1726.88
2019-04-20T16:40:44.321Z,1805.63
2019-04-20T16:41:44.451Z,1828.13
2019-04-20T16:42:45.123Z,1732.50
2019-04-20T16:43:45.995Z,1693.13
2019-04-20T16:44:43.403Z,1687.50
2019-04-20T16:45:43.391Z,1659.38
2019-04-20T16:46:43.389Z,1603.13
2019-04-20T16:47:44.174Z,1665.00
2019-04-20T16:48:44.307Z,1743.75
2019-04-20T16:49:43.399Z,1670.63
2019-04-20T16:50:44.877Z,1597.50
2019-04-20T16:51:43.384Z,1636.88
2019-04-20T16:52:43.386Z,1636.88
2019-04-20T16:53:43.634Z,1535.63
2019-04-20T16:54:43.864Z,1507.50
2019-04-20T16:55:43.382Z,1530.00
2019-04-20T16:56:44.433Z,1541.25
2019-04-20T16:57:46.162Z,1524.38
2019-04-20T16:58:44.105Z,1456.88
2019-04-20T16:59:47.261Z,1406.25
2019-04-20T17:00:43.379Z,1383.75
2019-04-20T17:01:44.487Z,1389.38
2019-04-20T17:02:44.611Z,1389.38
2019-04-20T17:03:52.171Z,1372.50
2019-04-20T17:04:43.386Z,1361.25
2019-04-20T17:05:43.404Z,1338.75
2019-04-20T17:06:44.156Z,1316.25
2019-04-20T17:07:44.756Z,1316.25
2019-04-20T17:08:44.521Z,1288.13
2019-04-20T17:09:43.924Z,1260.00
2019-04-20T17:10:44.469Z,1158.75
2019-04-20T17:11:43.771Z,961.88
2019-04-20T17:12:43.828Z,855.00
2019-04-20T17:13:49.408Z,939.38
2019-04-20T17:14:43.491Z,922.50
2019-04-20T17:15:43.464Z,793.13
2019-04-20T17:16:43.784Z,826.88
2019-04-20T17:17:43.494Z,883.13
2019-04-20T17:18:43.450Z,928.13
2019-04-20T17:19:43.929Z,961.88
2019-04-20T17:20:44.316Z,945.00
2019-04-20T17:21:44.502Z,888.75
2019-04-20T17:22:44.415Z,826.88
2019-04-20T17:23:45.030Z,793.13
2019-04-20T17:24:43.322Z,815.63
2019-04-20T17:25:43.893Z,826.88
2019-04-20T17:26:43.470Z,849.38
2019-04-20T17:27:44.629Z,832.50
2019-04-20T17:28:44.759Z,804.38
2019-04-20T17:29:45.614Z,787.50
2019-04-20T17:30:45.132Z,765.00
2019-04-20T17:31:43.292Z,753.75
2019-04-20T17:32:43.493Z,742.50
2019-04-20T17:33:55.121Z,725.63
2019-04-20T17:34:57.271Z,708.75
2019-04-20T17:35:53.044Z,691.88
2019-04-20T17:36:44.430Z,658.13
2019-04-20T17:37:46.326Z,607.50
2019-04-20T17:38:48.637Z,506.25
2019-04-20T17:40:06.451Z,371.25
2019-04-20T17:41:01.806Z,315.00
2019-04-20T17:42:00.435Z,281.25
2019-04-20T17:42:54.114Z,258.75
2019-04-20T17:44:04.121Z,241.88
2019-04-20T17:44:55.507Z,225.00
2019-04-20T17:45:55.814Z,219.38
2019-04-20T17:46:56.843Z,202.50
2019-04-20T17:48:03.179Z,191.25
2019-04-20T17:49:00.660Z,185.63
2019-04-20T17:50:06.871Z,180.00
2019-04-20T17:51:04.821Z,180.00
2019-04-20T17:52:06.263Z,168.75
2019-04-20T17:53:03.060Z,163.13
2019-04-20T17:53:50.960Z,163.13
2019-04-20T17:54:43.302Z,163.13
2019-04-20T17:55:45.394Z,157.50
2019-04-20T17:56:44.385Z,157.50
2019-04-20T17:57:43.606Z,151.88
2019-04-20T17:58:43.887Z,146.25
2019-04-20T17:59:44.832Z,135.00
2019-04-20T18:00:47.922Z,129.38
2019-04-20T18:02:00.437Z,129.38
2019-04-20T18:03:06.036Z,129.38
2019-04-20T18:04:13.686Z,123.75
2019-04-20T18:05:06.588Z,106.88
2019-04-20T18:05:59.746Z,101.25
2019-04-20T18:06:53.735Z,101.25
2019-04-20T18:08:07.665Z,95.63
2019-04-20T18:09:00.476Z,95.63
2019-04-20T18:10:03.084Z,90.00